Time;durP1;ratioP1;P1;durP2;ratioP2;P2;SDS_P1;SDS_P2;PMS_P1;PMS_P2;Temp;Humidity;BMP_temperature;BMP_pressure;BME280_temperature;BME280_humidity;BME280_pressure;Samples;Min_cycle;Max_cycle;Signal;HPM_P1;HPM_P2
2023/06/09 00:02:25;;;;;;;10.50;5.75;;;;;;;17.05;66.15;99410.38;5023446;28;20041;-35
2023/06/09 00:04:51;;;;;;;11.65;5.95;;;;;;;17.06;66.40;99420.78;5018779;28;20038;-35
2023/06/09 00:07:17;;;;;;;13.40;5.90;;;;;;;17.02;66.39;99411.41;5029176;28;20583;-35
2023/06/09 00:09:45;;;;;;;11.00;6.50;;;;;;;17.07;66.61;99419.00;5010790;28;20041;-38
2023/06/09 00:12:12;;;;;;;10.07;6.00;;;;;;;17.05;66.56;99416.50;5028113;28;20139;-34
2023/06/09 00:14:38;;;;;;;11.23;5.85;;;;;;;16.99;66.34;99409.00;5029195;28;20436;-34
2023/06/09 00:17:08;;;;;;;12.90;5.72;;;;;;;16.99;66.67;99419.50;5021485;28;20128;-34
2023/06/09 00:19:35;;;;;;;9.77;5.50;;;;;;;16.95;66.79;99418.03;5008450;28;20076;-35
2023/06/09 00:22:01;;;;;;;9.65;5.40;;;;;;;16.90;67.09;99417.47;5024610;28;20037;-35
2023/06/09 00:24:27;;;;;;;10.00;5.18;;;;;;;16.67;67.25;99383.97;5008208;28;20038;-35
2023/06/09 00:26:53;;;;;;;8.10;5.93;;;;;;;16.74;67.69;99401.03;5009333;28;20459;-35
2023/06/09 00:29:22;;;;;;;11.13;5.57;;;;;;;16.64;68.00;99399.94;5024617;28;20480;-34
2023/06/09 00:31:48;;;;;;;9.32;5.30;;;;;;;16.61;68.23;99410.59;5009158;28;20041;-35
2023/06/09 00:34:15;;;;;;;12.50;5.80;;;;;;;16.56;68.55;99404.78;5024467;28;20406;-35
2023/06/09 00:36:41;;;;;;;15.18;6.32;;;;;;;16.52;68.90;99401.50;5009225;28;20037;-34
2023/06/09 00:39:07;;;;;;;10.90;6.03;;;;;;;16.49;69.29;99399.06;5007744;28;20064;-34
2023/06/09 00:41:37;;;;;;;12.43;5.93;;;;;;;16.45;69.20;99403.66;5007904;28;20046;-34
2023/06/09 00:44:04;;;;;;;11.82;5.28;;;;;;;16.25;69.69;99372.59;5024154;28;20030;-34
2023/06/09 00:46:30;;;;;;;7.13;5.13;;;;;;;16.36;69.60;99401.63;5027229;28;20132;-37
2023/06/09 00:48:56;;;;;;;9.25;5.28;;;;;;;16.18;70.26;99375.69;5043163;28;20045;-35
2023/06/09 00:51:22;;;;;;;10.50;5.00;;;;;;;16.29;70.26;99402.09;5027101;28;20049;-35
2023/06/09 00:53:48;;;;;;;10.63;5.47;;;;;;;16.12;70.35;99378.72;5025453;28;20037;-35
2023/06/09 00:56:15;;;;;;;8.25;5.43;;;;;;;16.25;71.11;99404.06;5042052;28;20033;-34
2023/06/09 00:58:43;;;;;;;9.32;6.35;;;;;;;16.24;71.28;99405.00;5027036;28;20041;-34
2023/06/09 01:01:09;;;;;;;10.25;5.10;;;;;;;16.23;71.28;99407.72;4993063;28;20033;-35
2023/06/09 01:03:38;;;;;;;8.43;5.82;;;;;;;16.18;71.74;99401.91;5026841;28;20160;-35
2023/06/09 01:06:12;;;;;;;11.85;5.32;;;;;;;16.13;71.78;99404.81;5013145;28;20473;-35
2023/06/09 01:08:41;;;;;;;9.73;5.63;;;;;;;16.03;71.72;99404.53;5007582;28;20069;-35
2023/06/09 01:11:22;;;;;;;11.00;5.25;;;;;;;16.01;72.17;99410.84;5007544;28;20046;-35
2023/06/09 01:13:56;;;;;;;15.43;6.75;;;;;;;15.95;72.52;99405.97;4990991;28;20152;-35
2023/06/09 01:16:52;;;;;;;9.55;5.20;;;;;;;15.91;72.89;99407.09;5009463;28;20037;-35
2023/06/09 01:19:39;;;;;;;11.75;6.18;;;;;;;15.70;73.37;99376.91;4994494;28;20037;-34
2023/06/09 01:22:21;;;;;;;11.55;5.00;;;;;;;15.81;73.42;99411.16;5011010;28;20042;-34
2023/06/09 01:24:57;;;;;;;11.00;5.30;;;;;;;15.77;73.86;99407.06;4994372;28;20144;-34
2023/06/09 01:27:24;;;;;;;8.77;5.22;;;;;;;15.74;74.09;99413.34;5027004;28;20034;-35
2023/06/09 01:29:51;;;;;;;7.68;5.07;;;;;;;15.61;74.05;99400.09;5026782;28;20124;-35
2023/06/09 01:32:18;;;;;;;8.30;4.90;;;;;;;15.67;74.40;99415.47;5026836;28;20064;-35
2023/06/09 01:34:44;;;;;;;5.60;4.45;;;;;;;15.66;74.80;99412.94;5010127;28;20429;-36
2023/06/09 01:37:12;;;;;;;8.02;5.13;;;;;;;15.64;74.63;99406.97;5027002;28;20052;-36
2023/06/09 01:39:38;;;;;;;8.35;5.00;;;;;;;15.64;74.98;99410.44;5026681;28;20061;-37
2023/06/09 01:42:06;;;;;;;7.32;4.90;;;;;;;15.62;74.79;99412.28;5026759;28;20096;-35
2023/06/09 01:44:35;;;;;;;14.70;5.40;;;;;;;15.63;75.00;99400.88;5010653;28;20623;-35
2023/06/09 01:47:01;;;;;;;6.55;4.75;;;;;;;15.61;74.81;99400.09;5028004;28;20143;-35
2023/06/09 01:49:33;;;;;;;10.50;4.90;;;;;;;15.61;75.31;99397.47;5043325;28;20034;-34
2023/06/09 01:52:06;;;;;;;12.60;5.75;;;;;;;15.62;75.16;99400.94;5010316;28;20496;-35
2023/06/09 01:54:36;;;;;;;7.80;5.07;;;;;;;15.60;75.53;99403.66;5026697;28;20045;-35
2023/06/09 01:57:16;;;;;;;8.27;5.45;;;;;;;15.60;75.44;99402.81;5026697;28;20048;-36
2023/06/09 01:59:53;;;;;;;9.90;5.20;;;;;;;15.58;75.75;99408.16;5010873;28;20179;-35
2023/06/09 02:02:20;;;;;;;8.93;5.93;;;;;;;15.59;75.93;99409.00;5030836;28;20075;-36
2023/06/09 02:04:48;;;;;;;10.02;5.82;;;;;;;15.45;75.93;99386.19;5012592;28;20049;-36
2023/06/09 02:07:16;;;;;;;12.10;7.30;;;;;;;15.45;76.07;99380.09;5031977;28;20037;-35
2023/06/09 02:09:46;;;;;;;;;;;;;;;15.58;76.23;99407.31;5015170;28;20061;-34
2023/06/09 02:12:11;;;;;;;8.70;4.80;;;;;;;15.54;76.15;99406.66;5030581;28;19917;-35
2023/06/09 02:14:39;;;;;;;10.98;5.30;;;;;;;15.56;76.34;99411.78;5031620;28;20038;-35
2023/06/09 02:17:05;;;;;;;9.55;5.07;;;;;;;15.43;76.25;99389.84;5023220;28;20763;-35
2023/06/09 02:19:35;;;;;;;11.93;5.82;;;;;;;15.54;76.48;99406.66;4978100;28;20042;-35
2023/06/09 02:22:02;;;;;;;9.15;5.78;;;;;;;15.56;76.41;99410.00;5010672;28;20046;-35
2023/06/09 02:24:28;;;;;;;13.98;5.93;;;;;;;15.57;76.42;99403.84;5010685;28;20033;-35
2023/06/09 02:26:56;;;;;;;12.82;6.03;;;;;;;15.59;76.44;99414.25;5026873;28;20050;-34
2023/06/09 02:29:25;;;;;;;9.48;5.55;;;;;;;15.60;76.35;99405.44;5011564;28;20046;-35
2023/06/09 02:31:53;;;;;;;9.35;5.28;;;;;;;15.63;76.58;99421.84;5024147;28;20038;-36
2023/06/09 02:34:22;;;;;;;10.32;5.47;;;;;;;15.65;76.71;99421.72;5029964;28;20056;-35
2023/06/09 02:36:52;;;;;;;9.18;5.90;;;;;;;15.57;76.41;99401.22;5029870;28;20037;-35
2023/06/09 02:39:21;;;;;;;11.95;6.20;;;;;;;15.75;76.55;99414.19;5013302;28;20061;-35
2023/06/09 02:41:47;;;;;;;10.40;5.40;;;;;;;15.77;76.14;99405.28;5029928;28;20660;-35
2023/06/09 02:44:14;;;;;;;9.95;5.80;;;;;;;15.77;75.88;99414.91;5046608;28;20048;-35
2023/06/09 02:46:40;;;;;;;9.68;4.97;;;;;;;15.74;75.64;99413.34;4996884;28;20025;-35
2023/06/09 02:49:06;;;;;;;7.72;4.75;;;;;;;15.73;75.81;99409.03;5013439;28;20494;-35
2023/06/09 02:51:32;;;;;;;9.00;4.93;;;;;;;15.72;76.22;99406.47;5030914;28;20090;-35
2023/06/09 02:53:59;;;;;;;12.82;5.70;;;;;;;15.71;76.50;99407.41;5029587;28;20114;-35
2023/06/09 02:56:26;;;;;;;8.95;5.50;;;;;;;15.71;76.07;99405.63;5029492;28;20063;-34
2023/06/09 02:58:53;;;;;;;7.72;4.70;;;;;;;15.76;76.25;99400.13;5012953;28;20049;-35
2023/06/09 03:01:20;;;;;;;7.78;5.35;;;;;;;15.75;76.28;99401.91;5029491;28;20038;-35
2023/06/09 03:03:47;;;;;;;15.32;5.20;;;;;;;15.77;75.95;99394.78;5013163;28;20497;-35
2023/06/09 03:06:15;;;;;;;8.45;4.47;;;;;;;15.64;75.79;99372.88;5013386;28;20168;-35
2023/06/09 03:08:42;;;;;;;8.85;6.70;;;;;;;15.83;75.53;99389.19;5009577;28;20529;-34
2023/06/09 03:11:09;;;;;;;8.60;5.32;;;;;;;15.88;75.14;99397.63;5025740;28;20087;-35
2023/06/09 03:13:35;;;;;;;7.10;4.82;;;;;;;15.82;75.03;99384.03;5009476;28;20046;-36
2023/06/09 03:16:04;;;;;;;9.30;5.20;;;;;;;15.95;75.09;99401.56;5009551;28;20188;-36
2023/06/09 03:18:31;;;;;;;7.25;5.07;;;;;;;15.99;75.24;99408.28;5045631;28;20045;-36
2023/06/09 03:21:04;;;;;;;15.10;5.40;;;;;;;16.01;74.77;99398.56;5029237;28;20645;-35
2023/06/09 03:23:32;;;;;;;10.07;5.20;;;;;;;15.92;74.82;99380.75;5028876;28;20045;-36
2023/06/09 03:25:59;;;;;;;11.73;5.40;;;;;;;15.89;74.99;99375.72;5012379;28;20041;-35
2023/06/09 03:28:27;;;;;;;9.63;5.53;;;;;;;16.14;74.86;99405.66;5030386;28;20445;-36
2023/06/09 03:30:55;;;;;;;7.63;5.07;;;;;;;16.23;74.19;99403.31;5028864;28;20045;-35
2023/06/09 03:33:22;;;;;;;11.75;4.95;;;;;;;16.31;74.21;99408.94;5029086;28;20505;-36
2023/06/09 03:35:49;;;;;;;13.05;4.90;;;;;;;16.38;73.69;99399.72;5012373;28;20050;-35
2023/06/09 03:38:17;;;;;;;11.15;4.55;;;;;;;16.15;73.30;99358.38;5028866;28;20049;-36
2023/06/09 03:40:43;;;;;;;8.55;5.60;;;;;;;16.53;73.25;99405.81;5012270;28;20053;-35
2023/06/09 03:43:11;;;;;;;6.82;4.43;;;;;;;16.59;72.56;99407.25;5030006;28;20171;-35
2023/06/09 03:45:38;;;;;;;7.70;4.72;;;;;;;16.63;72.35;99412.22;5012668;28;20037;-35
2023/06/09 03:48:06;;;;;;;8.02;4.80;;;;;;;16.60;72.18;99407.13;5028530;28;20143;-35
2023/06/09 03:50:32;;;;;;;6.93;4.93;;;;;;;16.60;71.78;99401.03;5028656;28;20666;-35
2023/06/09 03:52:58;;;;;;;6.75;4.55;;;;;;;16.64;71.41;99400.78;5012150;28;20049;-35
2023/06/09 03:55:25;;;;;;;6.68;4.30;;;;;;;16.48;71.33;99363.28;5028431;28;20052;-35
2023/06/09 03:57:54;;;;;;;7.43;4.95;;;;;;;16.94;70.68;99408.47;5011994;28;20140;-35
2023/06/09 04:00:21;;;;;;;9.88;4.50;;;;;;;17.20;70.05;99414.63;5028349;28;20037;-35
2023/06/09 04:02:47;;;;;;;9.70;4.43;;;;;;;17.38;69.04;99416.88;5028534;28;20050;-35
2023/06/09 04:05:16;;;;;;;9.13;4.53;;;;;;;17.47;68.56;99427.75;5012213;28;20194;-36
2023/06/09 04:07:43;;;;;;;6.47;4.22;;;;;;;17.38;68.14;99427.38;5028311;28;20042;-35
2023/06/09 04:10:10;;;;;;;6.55;4.03;;;;;;;17.07;68.51;99403.22;5044847;28;20037;-34
2023/06/09 04:12:41;;;;;;;10.05;4.93;;;;;;;17.14;68.48;99426.38;5009861;28;20439;-36
2023/06/09 04:15:09;;;;;;;11.43;4.90;;;;;;;17.05;68.99;99427.00;4996550;28;20544;-35
2023/06/09 04:17:37;;;;;;;8.75;5.18;;;;;;;17.03;69.12;99423.63;5027840;28;20056;-35
2023/06/09 04:20:07;;;;;;;8.77;4.85;;;;;;;17.08;69.05;99418.91;5040302;28;20520;-35
2023/06/09 04:22:34;;;;;;;6.80;4.65;;;;;;;17.16;69.07;99424.50;4994600;28;20045;-34
2023/06/09 04:25:01;;;;;;;9.23;5.00;;;;;;;17.24;68.62;99427.47;5011512;28;20551;-35
2023/06/09 04:27:30;;;;;;;5.63;4.35;;;;;;;17.22;68.28;99410.09;5011268;28;20578;-35
2023/06/09 04:29:57;;;;;;;6.28;4.63;;;;;;;17.38;67.94;99426.53;5011230;28;20516;-35
2023/06/09 04:32:24;;;;;;;8.10;4.60;;;;;;;17.46;67.64;99426.91;5027586;28;20159;-35
2023/06/09 04:34:52;;;;;;;5.50;4.22;;;;;;;17.57;67.57;99420.91;5011508;28;20147;-35
2023/06/09 04:37:19;;;;;;;6.88;4.72;;;;;;;17.70;66.78;99421.78;5027105;28;20076;-37
2023/06/09 04:39:47;;;;;;;10.45;4.90;;;;;;;17.81;66.02;99424.53;5027155;28;20049;-36
2023/06/09 04:42:19;;;;;;;7.53;4.50;;;;;;;17.87;65.57;99413.59;5027168;28;20136;-40
2023/06/09 04:44:47;;;;;;;11.40;4.35;;;;;;;17.97;64.34;99419.91;5010551;28;20061;-35
2023/06/09 04:47:18;;;;;;;6.57;4.25;;;;;;;17.92;63.95;99395.72;5027088;28;20041;-35
2023/06/09 04:49:46;;;;;;;9.15;4.20;;;;;;;18.11;63.75;99403.16;5026857;28;20037;-36
2023/06/09 04:52:17;;;;;;;7.20;4.72;;;;;;;18.20;63.58;99411.28;5026883;28;20103;-36
2023/06/09 04:54:49;;;;;;;7.53;4.22;;;;;;;18.31;62.98;99418.44;5009707;28;20037;-35
2023/06/09 04:57:17;;;;;;;6.97;4.03;;;;;;;18.39;62.67;99428.41;5010998;28;20152;-35
2023/06/09 04:59:45;;;;;;;12.60;4.68;;;;;;;18.38;62.48;99421.44;5024569;28;20514;-35
2023/06/09 05:02:11;;;;;;;9.52;4.68;;;;;;;18.42;62.48;99420.31;5010585;28;20052;-35
2023/06/09 05:04:38;;;;;;;5.55;4.32;;;;;;;18.42;61.99;99423.75;4990005;28;20513;-36
2023/06/09 05:07:06;;;;;;;8.68;4.68;;;;;;;18.28;62.10;99391.47;4990962;28;20516;-36
2023/06/09 05:09:32;;;;;;;6.73;4.70;;;;;;;18.50;62.31;99415.34;5023978;28;20509;-34
2023/06/09 05:11:58;;;;;;;6.82;4.38;;;;;;;18.57;62.34;99420.09;5007432;28;20320;-37
2023/06/09 05:14:25;;;;;;;8.38;4.45;;;;;;;18.55;62.32;99394.81;5023415;28;20564;-35
2023/06/09 05:16:53;;;;;;;6.22;4.28;;;;;;;18.55;61.72;99397.44;5030072;28;20045;-38
2023/06/09 05:19:21;;;;;;;7.65;4.35;;;;;;;18.76;60.99;99419.59;5010254;28;20045;-36
2023/06/09 05:21:47;;;;;;;6.53;4.13;;;;;;;18.88;61.03;99413.47;5010279;28;20048;-36
2023/06/09 05:24:13;;;;;;;8.73;4.82;;;;;;;18.98;60.11;99411.00;5026902;28;20152;-41
2023/06/09 05:26:40;;;;;;;8.00;4.18;;;;;;;19.07;59.13;99415.59;5042660;28;20505;-37
2023/06/09 05:29:06;;;;;;;5.38;3.28;;;;;;;19.19;57.97;99405.94;5010160;28;20045;-36
2023/06/09 05:31:32;;;;;;;7.50;4.38;;;;;;;19.16;57.35;99399.06;5010142;28;20595;-36
2023/06/09 05:33:59;;;;;;;8.80;4.50;;;;;;;19.30;57.11;99401.56;5026725;28;20049;-35
2023/06/09 05:36:26;;;;;;;7.97;4.57;;;;;;;19.48;57.08;99404.63;5030013;28;20095;-38
2023/06/09 05:38:54;;;;;;;12.77;4.38;;;;;;;19.55;56.64;99408.50;4997132;28;20049;-35
2023/06/09 05:41:20;;;;;;;8.60;3.80;;;;;;;19.64;55.78;99399.88;5029140;28;20041;-37
2023/06/09 05:43:46;;;;;;;6.20;3.65;;;;;;;19.81;54.79;99404.72;5030089;28;20471;-36
2023/06/09 05:46:12;;;;;;;7.47;3.97;;;;;;;19.97;53.13;99407.00;5030663;28;20048;-36
2023/06/09 05:48:37;;;;;;;10.70;4.28;;;;;;;20.10;52.47;99415.63;5029720;28;20044;-37
2023/06/09 05:51:03;;;;;;;8.88;3.80;;;;;;;20.26;52.04;99407.34;5029867;28;20505;-36
2023/06/09 05:53:32;;;;;;;4.88;3.50;;;;;;;20.41;51.03;99419.38;5031035;28;20037;-36
2023/06/09 05:55:58;;;;;;;5.32;3.45;;;;;;;20.47;50.20;99400.41;5031390;28;20057;-37
2023/06/09 05:58:27;;;;;;;9.23;3.30;;;;;;;20.59;49.03;99388.88;5030569;28;20037;-36
2023/06/09 06:00:57;;;;;;;9.93;4.15;;;;;;;20.92;48.64;99411.75;5031536;28;20054;-37
2023/06/09 06:03:23;;;;;;;6.53;3.78;;;;;;;20.83;48.03;99375.47;5030637;28;20044;-37
2023/06/09 06:05:49;;;;;;;6.18;3.38;;;;;;;21.08;47.89;99380.47;5017393;28;20470;-35
2023/06/09 06:08:15;;;;;;;8.60;3.58;;;;;;;21.37;47.45;99404.50;5010704;28;20041;-36
2023/06/09 06:10:41;;;;;;;7.43;3.70;;;;;;;21.22;47.04;99371.41;5010717;28;20056;-38
2023/06/09 06:13:07;;;;;;;6.63;3.53;;;;;;;21.47;45.13;99405.41;5011828;28;20600;-37
2023/06/09 06:15:32;;;;;;;6.22;3.33;;;;;;;21.53;44.56;99390.84;5010650;28;20053;-37
2023/06/09 06:17:58;;;;;;;7.25;3.60;;;;;;;21.66;44.19;99403.88;5027011;28;20068;-37
2023/06/09 06:20:24;;;;;;;7.60;3.63;;;;;;;21.77;42.89;99403.81;5031726;28;20049;-36
2023/06/09 06:22:51;;;;;;;9.27;3.80;;;;;;;21.88;42.77;99395.78;5013720;28;20524;-37
2023/06/09 06:25:17;;;;;;;6.18;3.50;;;;;;;22.21;42.00;99403.50;4997352;28;20037;-37
2023/06/09 06:27:43;;;;;;;4.85;2.92;;;;;;;22.42;39.66;99406.09;5030171;28;20045;-37
2023/06/09 06:30:09;;;;;;;7.03;3.47;;;;;;;22.41;38.31;99404.41;5030075;28;20124;-37
2023/06/09 06:32:36;;;;;;;8.25;3.63;;;;;;;22.52;37.90;99406.13;5031358;28;20509;-38
2023/06/09 06:35:02;;;;;;;7.43;3.30;;;;;;;22.62;37.22;99405.19;5031218;28;20045;-36
2023/06/09 06:37:31;;;;;;;5.10;3.27;;;;;;;22.69;36.86;99382.47;5031197;28;20044;-36
2023/06/09 06:39:57;;;;;;;5.63;3.10;;;;;;;23.36;35.49;99407.38;5031096;28;20080;-38
2023/06/09 06:42:23;;;;;;;5.55;3.40;;;;;;;23.97;34.08;99399.94;5013599;28;20512;-37
2023/06/09 06:45:00;;;;;;;15.18;3.55;;;;;;;25.10;33.58;99384.53;5013066;28;20091;-36
2023/06/09 06:47:26;;;;;;;6.28;3.28;;;;;;;26.46;32.00;99399.81;5030768;28;20052;-37
2023/06/09 06:49:52;;;;;;;4.85;3.15;;;;;;;27.37;29.90;99408.72;5029537;28;20034;-36
2023/06/09 06:52:18;;;;;;;7.72;3.20;;;;;;;28.12;28.25;99409.38;5030868;28;20029;-36
2023/06/09 06:54:45;;;;;;;5.75;3.20;;;;;;;29.09;27.01;99413.47;5013091;28;20559;-38
2023/06/09 06:57:10;;;;;;;4.45;3.08;;;;;;;29.99;25.70;99413.63;5013081;28;20064;-38
2023/06/09 06:59:36;;;;;;;4.88;3.40;;;;;;;30.19;23.71;99422.78;5030872;28;20072;-36
2023/06/09 07:02:02;;;;;;;6.75;3.42;;;;;;;30.78;22.82;99420.88;5029287;28;20053;-36
2023/06/09 07:04:29;;;;;;;5.05;2.88;;;;;;;30.80;22.27;99415.34;5027384;28;20037;-37
2023/06/09 07:06:55;;;;;;;2.97;2.58;;;;;;;30.54;21.81;99400.56;5011109;28;20053;-38
2023/06/09 07:09:22;;;;;;;4.78;2.85;;;;;;;30.76;21.61;99408.69;4993068;28;20053;-36
2023/06/09 07:11:47;;;;;;;6.63;3.60;;;;;;;30.81;21.63;99415.16;5010910;28;20052;-36
2023/06/09 07:14:13;;;;;;;8.20;3.75;;;;;;;31.14;20.78;99402.13;5010674;28;20049;-36
2023/06/09 07:16:39;;;;;;;6.30;3.65;;;;;;;31.52;20.25;99418.78;5014925;28;20037;-37
2023/06/09 07:19:05;;;;;;;12.20;3.83;;;;;;;32.71;19.84;99415.09;5030357;28;20119;-37
2023/06/09 07:21:32;;;;;;;5.97;5.18;;;;;;;32.96;18.90;99401.91;5028927;28;20537;-38
2023/06/09 07:23:58;;;;;;;5.50;3.67;;;;;;;33.09;18.80;99426.19;5030569;28;20461;-37
2023/06/09 07:26:25;;;;;;;5.78;3.70;;;;;;;33.02;18.88;99426.19;5028290;28;20416;-37
2023/06/09 07:28:50;;;;;;;5.18;3.50;;;;;;;33.53;18.60;99425.66;5045421;28;20295;-37
2023/06/09 07:31:16;;;;;;;5.18;3.78;;;;;;;34.67;18.06;99426.97;5045469;28;20068;-37
2023/06/09 07:33:43;;;;;;;4.30;3.72;;;;;;;35.07;17.05;99407.91;5030105;28;20091;-36
2023/06/09 07:36:11;;;;;;;6.60;3.85;;;;;;;34.67;16.48;99415.34;5028822;28;20095;-38
2023/06/09 07:38:44;;;;;;;5.53;3.60;;;;;;;35.72;16.27;99420.16;5030003;28;20433;-37
2023/06/09 07:41:10;;;;;;;7.05;4.13;;;;;;;36.44;16.19;99422.16;5011970;28;20041;-37
2023/06/09 07:43:36;;;;;;;5.97;4.20;;;;;;;37.40;14.83;99431.34;5030022;28;20448;-37
2023/06/09 07:46:01;;;;;;;6.43;3.78;;;;;;;37.63;14.67;99426.00;5028678;28;20099;-37
2023/06/09 07:48:27;;;;;;;5.78;3.92;;;;;;;38.63;14.42;99428.59;5029911;28;20055;-37
2023/06/09 07:50:53;;;;;;;4.85;4.00;;;;;;;39.17;13.80;99419.88;5028573;28;20052;-37
2023/06/09 07:53:21;;;;;;;4.70;3.90;;;;;;;39.28;13.08;99421.69;5028410;28;20165;-37
2023/06/09 07:55:47;;;;;;;7.38;4.20;;;;;;;39.22;13.85;99414.50;5028199;28;20096;-37
2023/06/09 07:58:13;;;;;;;6.82;4.10;;;;;;;40.07;12.89;99425.22;5028578;28;20421;-37
2023/06/09 08:00:39;;;;;;;5.15;4.18;;;;;;;40.85;13.11;99404.97;5029626;28;20038;-37
2023/06/09 08:03:04;;;;;;;4.93;3.72;;;;;;;41.81;12.60;99425.03;5028304;28;20516;-36
2023/06/09 08:05:31;;;;;;;7.70;4.13;;;;;;;41.76;12.19;99422.25;5019116;28;20095;-37
2023/06/09 08:07:57;;;;;;;5.70;4.00;;;;;;;41.24;12.32;99423.97;5008324;28;20044;-37
2023/06/09 08:10:23;;;;;;;4.45;4.05;;;;;;;40.74;12.80;99419.59;5009615;28;20045;-37
2023/06/09 08:12:52;;;;;;;5.97;4.13;;;;;;;41.82;12.44;99423.13;5007791;28;20588;-37
2023/06/09 08:15:18;;;;;;;9.65;4.88;;;;;;;42.01;11.23;99418.91;5008080;28;20045;-37
2023/06/09 08:17:44;;;;;;;8.25;4.15;;;;;;;41.13;12.23;99422.22;5005385;28;20041;-37
2023/06/09 08:20:10;;;;;;;9.88;4.18;;;;;;;41.71;11.59;99432.31;5027737;28;20037;-37
2023/06/09 08:22:37;;;;;;;5.30;4.00;;;;;;;41.82;11.29;99434.84;5028909;28;20045;-37
2023/06/09 08:25:03;;;;;;;5.28;3.85;;;;;;;42.00;11.93;99414.50;5027926;28;20527;-38
2023/06/09 08:27:29;;;;;;;7.70;5.70;;;;;;;42.94;11.55;99436.28;5027812;28;20128;-37
2023/06/09 08:29:56;;;;;;;6.10;4.20;;;;;;;43.02;10.77;99426.75;5028862;28;20128;-37
2023/06/09 08:32:21;;;;;;;5.25;4.43;;;;;;;42.43;11.39;99432.53;5011287;28;20045;-36
2023/06/09 08:34:47;;;;;;;4.72;3.90;;;;;;;42.44;11.25;99433.38;5027523;28;20095;-38
2023/06/09 08:37:15;;;;;;;8.10;4.25;;;;;;;41.96;11.29;99431.69;5027664;28;20532;-38
2023/06/09 08:39:41;;;;;;;7.53;4.55;;;;;;;40.74;11.49;99427.78;5028607;28;20053;-37
2023/06/09 08:42:13;;;;;;;7.22;4.10;;;;;;;40.73;12.01;99433.47;5027418;28;20067;-36
2023/06/09 08:44:42;;;;;;;4.30;3.90;;;;;;;41.44;11.48;99437.78;5027244;28;20061;-36
2023/06/09 08:47:08;;;;;;;4.45;3.85;;;;;;;40.81;11.40;99417.50;5027617;28;20045;-36
2023/06/09 08:49:35;;;;;;;;;;;;;;;40.90;12.06;99432.31;5011720;28;20601;-37
2023/06/09 08:52:03;;;;;;;7.70;4.03;;;;;;;41.05;12.21;99428.94;5027348;28;20008;-37
2023/06/09 08:54:28;;;;;;;10.32;4.50;;;;;;;41.80;11.83;99426.09;5027098;28;20037;-37
2023/06/09 08:56:54;;;;;;;4.57;4.03;;;;;;;42.75;11.17;99404.25;5028471;28;20088;-37
2023/06/09 08:59:21;;;;;;;5.47;4.00;;;;;;;43.70;10.95;99424.66;5028423;28;20041;-38
2023/06/09 09:01:50;;;;;;;6.18;4.00;;;;;;;43.01;10.93;99422.38;5027090;28;20132;-37
2023/06/09 09:04:17;;;;;;;4.75;4.35;;;;;;;42.94;11.13;99422.63;5028317;28;20057;-37
2023/06/09 09:06:43;;;;;;;6.25;4.28;;;;;;;43.77;10.88;99427.91;5008713;28;20135;-37
2023/06/09 09:09:09;;;;;;;6.60;4.78;;;;;;;44.42;10.50;99396.84;5007264;28;20517;-36
2023/06/09 09:11:35;;;;;;;5.20;4.70;;;;;;;44.97;10.74;99434.16;5008686;28;20049;-37
2023/06/09 09:14:11;;;;;;;6.70;4.43;;;;;;;44.52;10.32;99435.19;4992227;28;20041;-37
2023/06/09 09:16:37;;;;;;;4.72;4.05;;;;;;;43.52;10.29;99422.47;5010766;28;20057;-37
2023/06/09 09:19:04;;;;;;;5.72;4.50;;;;;;;43.27;10.78;99418.59;5027011;28;20045;-37
2023/06/09 09:21:30;;;;;;;6.55;4.28;;;;;;;44.01;10.55;99420.81;5028203;28;20128;-37
2023/06/09 09:24:07;;;;;;;8.13;7.40;;;;;;;44.54;10.45;99410.22;5028215;28;20132;-37
2023/06/09 09:26:33;;;;;;;8.70;6.47;;;;;;;44.38;10.42;99408.66;4994840;28;20505;-37
2023/06/09 09:29:06;;;;;;;7.05;4.43;;;;;;;45.27;10.06;99422.19;5025594;28;20049;-36
2023/06/09 09:31:39;;;;;;;6.47;4.80;;;;;;;46.00;9.77;99424.88;5006938;28;20048;-37
2023/06/09 09:34:10;;;;;;;6.22;4.50;;;;;;;45.55;10.11;99420.59;5007155;28;20038;-37
2023/06/09 09:36:43;;;;;;;6.30;4.25;;;;;;;45.88;9.77;99417.03;5007099;28;20041;-37
2023/06/09 09:39:09;;;;;;;5.93;4.65;;;;;;;46.38;10.15;99422.28;5006652;28;20061;-36
2023/06/09 09:41:35;;;;;;;4.77;4.37;;;;;;;44.56;9.49;99392.38;4990831;28;20509;-37
2023/06/09 09:44:01;;;;;;;7.63;4.07;;;;;;;43.03;10.72;99406.47;4990511;28;20038;-37
2023/06/09 09:46:35;;;;;;;6.50;4.30;;;;;;;42.96;10.82;99395.00;5008159;28;20065;-37
2023/06/09 09:49:01;;;;;;;5.50;4.13;;;;;;;43.65;10.16;99406.31;4974351;28;20077;-38
2023/06/09 09:51:27;;;;;;;5.75;4.00;;;;;;;43.62;9.98;99404.09;5006670;28;20073;-37
2023/06/09 09:53:57;;;;;;;4.53;4.10;;;;;;;42.57;9.77;99380.91;5008064;28;20034;-37
2023/06/09 09:56:23;;;;;;;4.57;3.90;;;;;;;42.59;10.23;99384.19;5006890;28;20075;-37
2023/06/09 09:58:53;;;;;;;5.63;4.15;;;;;;;43.74;10.31;99381.91;5006757;28;20046;-37
2023/06/09 10:01:24;;;;;;;4.70;4.05;;;;;;;44.65;10.05;99398.06;4990525;28;20065;-39
2023/06/09 10:03:53;;;;;;;4.85;4.30;;;;;;;44.58;9.75;99364.66;5006462;28;20042;-37
2023/06/09 10:06:19;;;;;;;4.93;4.45;;;;;;;44.93;9.93;99377.38;5007744;28;20066;-37
2023/06/09 10:08:45;;;;;;;4.95;4.28;;;;;;;45.77;9.38;99387.97;5006842;28;20064;-38
2023/06/09 10:11:12;;;;;;;5.70;4.80;;;;;;;46.25;9.00;99372.38;5006910;28;20045;-37
2023/06/09 10:13:38;;;;;;;8.00;4.85;;;;;;;46.47;9.17;99355.31;5008232;28;20112;-36
2023/06/09 10:16:04;;;;;;;7.32;5.28;;;;;;;46.45;9.77;99374.03;5006652;28;20484;-44
2023/06/09 10:18:32;;;;;;;4.95;4.45;;;;;;;46.10;9.13;99369.78;5026210;28;20060;-37
2023/06/09 10:20:58;;;;;;;6.82;4.22;;;;;;;45.28;9.22;99359.84;5010862;28;20054;-37
2023/06/09 10:23:27;;;;;;;5.43;4.93;;;;;;;45.26;9.35;99371.13;5030016;28;20512;-36
2023/06/09 10:25:52;;;;;;;4.82;4.35;;;;;;;46.19;8.90;99361.72;5029965;28;20582;-38
2023/06/09 10:28:20;;;;;;;4.50;4.10;;;;;;;45.65;8.75;99348.25;5030552;28;20517;-38
2023/06/09 10:30:47;;;;;;;4.28;3.97;;;;;;;44.16;9.65;99352.22;5030668;28;20045;-39
2023/06/09 10:33:19;;;;;;;4.57;3.80;;;;;;;44.12;9.39;99353.06;5030818;28;20513;-37
2023/06/09 10:35:47;;;;;;;4.45;4.15;;;;;;;44.06;9.65;99338.56;5031292;28;20460;-38
2023/06/09 10:38:30;;;;;;;5.18;4.30;;;;;;;44.82;9.86;99335.47;5013635;28;20413;-36
2023/06/09 10:41:15;;;;;;;6.22;4.70;;;;;;;45.58;9.84;99347.78;5029861;28;20496;-36
2023/06/09 10:44:29;;;;;;;4.93;4.43;;;;;;;45.85;9.86;99335.13;5029832;28;20124;-37
2023/06/09 10:46:55;;;;;;;5.82;4.13;;;;;;;46.53;9.41;99334.88;5007310;28;20048;-37
2023/06/09 10:49:24;;;;;;;5.18;4.43;;;;;;;45.77;9.38;99327.50;5029666;28;20037;-39
2023/06/09 10:51:50;;;;;;;5.65;3.90;;;;;;;45.69;9.57;99311.69;5030551;28;20175;-38
2023/06/09 10:54:16;;;;;;;4.85;4.30;;;;;;;46.14;9.51;99310.31;5013152;28;20086;-37
2023/06/09 10:56:47;;;;;;;5.88;4.50;;;;;;;46.55;9.38;99315.31;5029193;28;20049;-37
2023/06/09 10:59:26;;;;;;;4.72;4.00;;;;;;;44.49;9.71;99312.31;5030585;28;20033;-37
2023/06/09 11:02:01;;;;;;;4.25;3.92;;;;;;;44.78;9.80;99301.47;5030306;28;20113;-37
2023/06/09 11:04:44;;;;;;;6.18;4.07;;;;;;;44.71;9.88;99290.81;5028789;28;20149;-37
2023/06/09 11:07:16;;;;;;;4.85;4.38;;;;;;;45.90;9.53;99296.63;5009852;28;20046;-37
2023/06/09 11:09:51;;;;;;;5.13;4.53;;;;;;;45.06;9.54;99316.38;5010718;28;20816;-36
2023/06/09 11:12:56;;;;;;;4.82;3.75;;;;;;;41.94;10.19;99294.53;5010604;28;20052;-37
2023/06/09 11:15:23;;;;;;;4.57;3.47;;;;;;;40.88;11.17;99298.09;5010847;28;20040;-37
2023/06/09 11:17:53;;;;;;;4.72;3.63;;;;;;;39.54;11.88;99286.91;5039720;28;20136;-37
2023/06/09 11:20:24;;;;;;;4.40;3.50;;;;;;;39.12;12.39;99291.94;5012674;28;20185;-37
2023/06/09 11:22:50;;;;;;;7.55;4.00;;;;;;;39.31;12.16;99281.63;4996148;28;20088;-37
2023/06/09 11:25:18;;;;;;;3.83;3.13;;;;;;;37.87;12.96;99274.81;5030230;28;20081;-37
2023/06/09 11:27:47;;;;;;;6.38;3.63;;;;;;;37.47;13.18;99280.16;5028869;28;20052;-38
2023/06/09 11:30:18;;;;;;;5.78;3.67;;;;;;;37.63;13.56;99280.28;5030294;28;20475;-36
2023/06/09 11:32:45;;;;;;;3.90;3.38;;;;;;;38.89;12.81;99284.75;5027889;28;20034;-37
2023/06/09 11:35:21;;;;;;;5.90;3.10;;;;;;;38.84;13.00;99290.06;5030376;28;20488;-36
2023/06/09 11:37:49;;;;;;;6.03;2.75;;;;;;;37.50;13.58;99294.06;5028724;28;20094;-36
2023/06/09 11:40:16;;;;;;;4.55;2.90;;;;;;;34.19;15.43;99315.84;5030067;28;20057;-37